createdAt,value
2023-02-22T00:02:14.133Z,97853.56
2023-02-22T00:04:42.163Z,97857.23
2023-02-22T00:07:10.212Z,97862.75
2023-02-22T00:09:38.693Z,97866.18
2023-02-22T00:12:08.693Z,97871.84
2023-02-22T00:14:36.671Z,97879.30
2023-02-22T00:17:04.653Z,97878.04
2023-02-22T00:19:32.576Z,97884.05
2023-02-22T00:22:00.992Z,97879.91
2023-02-22T00:24:29.626Z,97884.77
2023-02-22T00:27:00.425Z,97894.36
2023-02-22T00:29:29.527Z,97901.41
2023-02-22T00:31:57.453Z,97910.02
2023-02-22T00:34:25.433Z,97912.15
2023-02-22T00:36:53.315Z,97918.67
2023-02-22T00:39:21.324Z,97918.89
2023-02-22T00:41:49.807Z,97926.21
2023-02-22T00:44:17.950Z,97934.33
2023-02-22T00:46:46.624Z,97930.59
2023-02-22T00:49:16.824Z,97939.71
2023-02-22T00:51:45.323Z,97942.55
2023-02-22T00:54:20.045Z,97946.38
2023-02-22T00:56:48.044Z,97949.96
2023-02-22T00:59:16.455Z,97954.86
2023-02-22T01:01:45.272Z,97961.95
2023-02-22T01:04:14.880Z,97963.77
2023-02-22T01:06:43.119Z,97966.66
2023-02-22T01:09:11.099Z,97972.39
2023-02-22T01:11:39.078Z,97975.38
2023-02-22T01:14:09.741Z,97978.94
2023-02-22T01:16:37.798Z,97989.26
2023-02-22T01:19:09.360Z,97987.54
2023-02-22T01:21:40.522Z,97996.45
2023-02-22T01:24:08.452Z,98000.27
2023-02-22T01:26:37.963Z,98000.55
2023-02-22T01:29:05.910Z,98003.09
2023-02-22T01:31:34.215Z,98004.36
2023-02-22T01:34:02.283Z,98005.33
2023-02-22T01:36:30.362Z,98009.92
2023-02-22T01:38:58.314Z,98013.39
2023-02-22T01:41:26.159Z,98017.34
2023-02-22T01:43:54.696Z,98014.48
2023-02-22T01:46:26.365Z,98019.57
2023-02-22T01:49:01.191Z,98023.67
2023-02-22T01:51:47.389Z,98030.20
2023-02-22T01:54:25.825Z,98042.00
2023-02-22T01:57:06.155Z,98052.27
2023-02-22T01:59:36.575Z,98055.42
2023-02-22T02:02:05.874Z,98062.05
2023-02-22T02:04:33.840Z,98060.19
2023-02-22T02:07:06.625Z,98067.65
2023-02-22T02:09:37.193Z,98071.45
2023-02-22T02:12:06.526Z,98077.80
2023-02-22T02:14:40.536Z,98082.38
2023-02-22T02:17:09.850Z,98077.75
2023-02-22T02:19:56.851Z,98090.27
2023-02-22T02:22:49.778Z,98090.98
2023-02-22T02:25:43.002Z,98100.50
2023-02-22T02:28:42.212Z,98102.20
2023-02-22T02:31:39.544Z,98101.83
2023-02-22T02:34:26.161Z,98113.16
2023-02-22T02:37:01.039Z,98115.81
2023-02-22T02:39:49.424Z,98115.93
2023-02-22T02:42:22.318Z,98127.84
2023-02-22T02:45:02.670Z,98127.36
2023-02-22T02:47:34.864Z,98132.00
2023-02-22T02:50:16.629Z,98131.73
2023-02-22T02:52:44.746Z,98134.02
2023-02-22T02:55:12.700Z,98135.68
2023-02-22T02:57:42.635Z,98135.09
2023-02-22T03:00:22.723Z,98156.07
2023-02-22T03:03:18.314Z,98155.55
2023-02-22T03:06:23.464Z,98164.77
2023-02-22T03:08:59.625Z,98164.17
2023-02-22T03:11:55.672Z,98169.69
2023-02-22T03:14:30.382Z,98177.61
2023-02-22T03:17:41.528Z,98188.19
2023-02-22T03:20:16.446Z,98189.94
2023-02-22T03:23:09.778Z,98188.30
2023-02-22T03:25:51.396Z,98189.14
2023-02-22T03:28:20.405Z,98197.36
2023-02-22T03:31:04.451Z,98198.75
2023-02-22T03:33:37.598Z,98209.69
2023-02-22T03:36:27.696Z,98214.91
2023-02-22T03:38:57.568Z,98216.67
2023-02-22T03:41:26.148Z,98219.96
2023-02-22T03:43:58.300Z,98224.55
2023-02-22T03:46:26.571Z,98231.38
2023-02-22T03:49:05.078Z,98235.54
2023-02-22T03:51:35.672Z,98235.33
2023-02-22T03:54:04.497Z,98234.21
2023-02-22T03:56:47.258Z,98244.83
2023-02-22T03:59:15.488Z,98248.73
2023-02-22T04:01:45.698Z,98247.98
2023-02-22T04:04:13.776Z,98256.84
2023-02-22T04:06:43.737Z,98258.92
2023-02-22T04:09:17.812Z,98264.31
2023-02-22T04:11:46.056Z,98268.59
2023-02-22T04:14:14.356Z,98269.55
2023-02-22T04:16:42.295Z,98275.58
2023-02-22T04:19:11.167Z,98284.00
2023-02-22T04:21:40.300Z,98288.02
2023-02-22T04:24:14.735Z,98292.67
2023-02-22T04:26:44.240Z,98293.31
2023-02-22T04:29:12.784Z,98297.95
2023-02-22T04:31:42.656Z,98300.98
2023-02-22T04:34:10.976Z,98306.42
2023-02-22T04:36:42.491Z,98306.05
2023-02-22T04:39:10.883Z,98315.98
2023-02-22T04:41:38.982Z,98321.91
2023-02-22T04:44:09.544Z,98323.35
2023-02-22T04:46:37.755Z,98322.44
2023-02-22T04:49:05.718Z,98333.39
2023-02-22T04:51:37.427Z,98333.02
2023-02-22T04:54:12.985Z,98334.13
2023-02-22T04:56:45.449Z,98341.65
2023-02-22T04:59:16.003Z,98343.85
2023-02-22T05:01:46.693Z,98349.83
2023-02-22T05:04:15.413Z,98351.10
2023-02-22T05:06:43.792Z,98360.66
2023-02-22T05:09:11.735Z,98364.77
2023-02-22T05:11:41.977Z,98367.50
2023-02-22T05:14:09.935Z,98367.08
2023-02-22T05:16:41.872Z,98379.88
2023-02-22T05:19:10.597Z,98381.92
2023-02-22T05:21:40.304Z,98387.20
2023-02-22T05:24:08.277Z,98391.97
2023-02-22T05:26:36.198Z,98397.89
2023-02-22T05:29:04.228Z,98402.53
2023-02-22T05:31:32.467Z,98406.54
2023-02-22T05:34:04.293Z,98410.54
2023-02-22T05:36:32.486Z,98419.19
2023-02-22T05:39:00.366Z,98420.42
2023-02-22T05:41:32.147Z,98420.20
2023-02-22T05:44:00.197Z,98428.42
2023-02-22T05:46:29.342Z,98439.05
2023-02-22T05:48:57.264Z,98448.96
2023-02-22T05:51:25.203Z,98452.23
2023-02-22T05:53:53.230Z,98454.63
2023-02-22T05:56:26.244Z,98455.10
2023-02-22T05:58:54.702Z,98459.69
2023-02-22T06:01:22.952Z,98459.74
2023-02-22T06:03:51.138Z,98461.67
2023-02-22T06:06:22.232Z,98470.21
2023-02-22T06:08:50.481Z,98475.17
2023-02-22T06:11:19.893Z,98479.61
2023-02-22T06:13:52.027Z,98481.15
2023-02-22T06:16:21.404Z,98488.93
2023-02-22T06:18:49.369Z,98491.33
2023-02-22T06:21:17.839Z,98501.74
2023-02-22T06:23:46.056Z,98502.86
2023-02-22T06:26:17.401Z,98504.25
2023-02-22T06:28:46.665Z,98506.60
2023-02-22T06:31:15.399Z,98512.41
2023-02-22T06:33:43.546Z,98516.89
2023-02-22T06:36:11.532Z,98516.85
2023-02-22T06:38:40.726Z,98521.48
2023-02-22T06:41:09.039Z,98531.48
2023-02-22T06:43:37.311Z,98529.34
2023-02-22T06:46:05.738Z,98536.54
2023-02-22T06:48:34.205Z,98540.42
2023-02-22T06:51:02.455Z,98545.23
2023-02-22T06:53:30.487Z,98541.71
2023-02-22T06:55:58.536Z,98543.02
2023-02-22T06:58:30.947Z,98543.48
2023-02-22T07:00:58.936Z,98555.39
2023-02-22T07:03:27.250Z,98552.41
2023-02-22T07:05:58.059Z,98556.71
2023-02-22T07:08:39.717Z,98561.20
2023-02-22T07:11:08.259Z,98563.50
2023-02-22T07:13:36.274Z,98568.99
2023-02-22T07:16:07.159Z,98565.09
2023-02-22T07:18:35.482Z,98567.22
2023-02-22T07:21:05.170Z,98575.02
2023-02-22T07:23:33.445Z,98571.77
2023-02-22T07:26:01.501Z,98569.40
2023-02-22T07:28:29.772Z,98572.83
2023-02-22T07:30:58.986Z,98574.74
2023-02-22T07:33:26.864Z,98583.77
2023-02-22T07:35:54.897Z,98583.40
2023-02-22T07:38:22.833Z,98586.49
2023-02-22T07:40:50.895Z,98593.33
2023-02-22T07:43:21.018Z,98597.11
2023-02-22T07:45:50.228Z,98594.71
2023-02-22T07:48:18.612Z,98591.83
2023-02-22T07:50:46.586Z,98594.29
2023-02-22T07:53:16.649Z,98598.08
2023-02-22T07:55:44.658Z,98600.86
2023-02-22T07:58:15.130Z,98604.27
2023-02-22T08:00:44.276Z,98606.41
2023-02-22T08:03:13.188Z,98610.04
2023-02-22T08:05:47.135Z,98611.33
2023-02-22T08:08:19.653Z,98610.58
2023-02-22T08:10:48.540Z,98610.58
2023-02-22T08:13:17.472Z,98613.04
2023-02-22T08:15:47.185Z,98613.95
2023-02-22T08:18:18.506Z,98616.08
2023-02-22T08:20:47.739Z,98614.31
2023-02-22T08:23:16.263Z,98618.42
2023-02-22T08:25:44.653Z,98619.06
2023-02-22T08:28:16.283Z,98621.57
2023-02-22T08:30:44.696Z,98629.05
2023-02-22T08:33:15.943Z,98632.73
2023-02-22T08:35:44.403Z,98635.09
2023-02-22T08:38:17.645Z,98630.06
2023-02-22T08:40:45.544Z,98629.45
2023-02-22T08:43:14.001Z,98632.88
2023-02-22T08:45:42.050Z,98637.95
2023-02-22T08:48:10.051Z,98638.01
2023-02-22T08:50:38.250Z,98640.85
2023-02-22T08:53:06.319Z,98644.80
2023-02-22T08:55:38.693Z,98640.90
2023-02-22T08:58:09.499Z,98641.96
2023-02-22T09:00:38.894Z,98645.70
2023-02-22T09:03:08.602Z,98646.40
2023-02-22T09:05:36.749Z,98645.49
2023-02-22T09:08:05.426Z,98649.77
2023-02-22T09:10:34.184Z,98652.33
2023-02-22T09:13:06.908Z,98651.69
2023-02-22T09:15:36.249Z,98659.38
2023-02-22T09:18:05.276Z,98660.55
2023-02-22T09:20:35.901Z,98659.31
2023-02-22T09:23:05.338Z,98654.94
2023-02-22T09:25:34.405Z,98664.77
2023-02-22T09:28:02.389Z,98664.81
2023-02-22T09:30:32.991Z,98660.28
2023-02-22T09:33:15.710Z,98671.23
2023-02-22T09:35:48.089Z,98671.71
2023-02-22T09:38:23.020Z,98670.21
2023-02-22T09:41:02.176Z,98674.59
2023-02-22T09:44:03.636Z,98674.36
2023-02-22T09:46:38.618Z,98671.71
2023-02-22T09:49:15.564Z,98674.27
2023-02-22T09:51:50.854Z,98671.66
2023-02-22T09:54:36.438Z,98671.23
2023-02-22T09:57:08.716Z,98672.14
2023-02-22T09:59:40.511Z,98673.15
2023-02-22T10:02:19.890Z,98671.55
2023-02-22T10:04:57.972Z,98669.46
2023-02-22T10:07:39.185Z,98668.45
2023-02-22T10:10:19.811Z,98669.04
2023-02-22T10:13:19.772Z,98666.69
2023-02-22T10:15:54.657Z,98670.48
2023-02-22T10:18:32.779Z,98673.80
2023-02-22T10:21:27.860Z,98673.53
2023-02-22T10:24:16.485Z,98672.84
2023-02-22T10:26:45.035Z,98677.53
2023-02-22T10:29:41.880Z,98676.71
2023-02-22T10:32:17.449Z,98677.16
2023-02-22T10:34:51.759Z,98677.41
2023-02-22T10:37:34.035Z,98676.61
2023-02-22T10:40:06.350Z,98677.30
2023-02-22T10:42:35.693Z,98678.63
2023-02-22T10:45:04.092Z,98676.19
2023-02-22T10:49:42.647Z,98673.94
2023-02-22T10:52:14.745Z,98669.75
2023-02-22T10:54:45.705Z,98669.98
2023-02-22T10:57:13.691Z,98665.72
2023-02-22T10:59:42.853Z,98665.27
2023-02-22T11:02:20.825Z,98667.45
2023-02-22T11:04:51.296Z,98670.64
2023-02-22T11:07:27.424Z,98674.16
2023-02-22T11:10:00.271Z,98677.17
2023-02-22T11:12:39.629Z,98678.73
2023-02-22T11:15:16.920Z,98679.14
2023-02-22T11:17:45.970Z,98681.63
2023-02-22T11:20:25.820Z,98685.09
2023-02-22T11:22:55.329Z,98689.67
2023-02-22T11:25:26.696Z,98692.30
2023-02-22T11:27:55.297Z,98693.80
2023-02-22T11:30:31.343Z,98691.73
2023-02-22T11:33:03.422Z,98690.52
2023-02-22T11:35:36.004Z,98691.20
2023-02-22T11:38:21.368Z,98695.35
2023-02-22T11:41:18.926Z,98694.53
2023-02-22T11:43:48.997Z,98695.63
2023-02-22T11:46:20.562Z,98697.35
2023-02-22T11:49:05.655Z,98692.10
2023-02-22T11:51:52.684Z,98688.70
2023-02-22T11:54:58.317Z,98689.78
2023-02-22T11:58:14.754Z,98687.07
2023-02-22T12:01:12.333Z,98690.45
2023-02-22T12:03:54.723Z,98693.55
2023-02-22T12:06:58.959Z,98687.19
2023-02-22T12:09:40.803Z,98689.17
2023-02-22T12:12:36.297Z,98686.71
2023-02-22T12:15:33.429Z,98685.92
2023-02-22T12:18:09.064Z,98688.81
2023-02-22T12:20:40.218Z,98690.98
2023-02-22T12:23:12.857Z,98687.30
2023-02-22T12:25:58.432Z,98692.49
2023-02-22T12:28:36.727Z,98693.44
2023-02-22T12:31:21.136Z,98695.69
2023-02-22T12:33:54.689Z,98696.80
2023-02-22T12:36:25.330Z,98699.99
2023-02-22T12:38:58.010Z,98698.85
2023-02-22T12:41:38.362Z,98706.07
2023-02-22T12:44:18.233Z,98702.11
2023-02-22T12:46:48.934Z,98704.61
2023-02-22T12:49:39.152Z,98708.09
2023-02-22T12:52:25.526Z,98710.55
2023-02-22T12:54:59.632Z,98711.14
2023-02-22T12:57:36.801Z,98713.42
2023-02-22T13:00:20.261Z,98712.90
2023-02-22T13:02:55.607Z,98715.02
2023-02-22T13:05:24.516Z,98719.09
2023-02-22T13:08:11.336Z,98719.63
2023-02-22T13:10:42.026Z,98719.52
2023-02-22T13:13:19.034Z,98719.95
2023-02-22T13:15:50.772Z,98727.75
2023-02-22T13:18:57.075Z,98730.32
2023-02-22T13:21:52.979Z,98729.17
2023-02-22T13:24:30.392Z,98731.96
2023-02-22T13:27:09.500Z,98733.95
2023-02-22T13:29:48.654Z,98737.04
2023-02-22T13:32:53.725Z,98737.58
2023-02-22T13:35:40.233Z,98740.52
2023-02-22T13:38:17.317Z,98741.27
2023-02-22T13:41:17.600Z,98741.54
2023-02-22T13:43:58.077Z,98745.22
2023-02-22T13:46:49.004Z,98748.86
2023-02-22T13:49:38.888Z,98744.15
2023-02-22T13:52:08.467Z,98742.92
2023-02-22T13:54:54.362Z,98747.90
2023-02-22T13:57:27.183Z,98752.97
2023-02-22T14:00:23.176Z,98754.41
2023-02-22T14:03:08.986Z,98759.86
2023-02-22T14:05:46.137Z,98762.80
2023-02-22T14:08:18.734Z,98763.08
2023-02-22T14:10:56.608Z,98764.62
2023-02-22T14:13:26.695Z,98769.70
2023-02-22T14:15:58.234Z,98773.71
2023-02-22T14:18:37.750Z,98769.21
2023-02-22T14:21:10.565Z,98773.48
2023-02-22T14:23:54.228Z,98770.30
2023-02-22T14:26:30.553Z,98773.66
2023-02-22T14:29:03.821Z,98780.27
2023-02-22T14:31:46.507Z,98777.28
2023-02-22T14:34:38.779Z,98777.13
2023-02-22T14:37:08.760Z,98782.15
2023-02-22T14:39:43.527Z,98783.06
2023-02-22T14:42:17.605Z,98780.19
2023-02-22T14:44:48.894Z,98779.59
2023-02-22T14:47:22.498Z,98783.87
2023-02-22T14:49:51.123Z,98787.40
2023-02-22T14:52:25.682Z,98786.69
2023-02-22T14:55:04.380Z,98788.09
2023-02-22T14:58:01.494Z,98790.80
2023-02-22T15:00:38.489Z,98789.85
2023-02-22T15:03:17.812Z,98794.98
2023-02-22T15:05:49.981Z,98799.52
2023-02-22T15:08:28.011Z,98804.23
2023-02-22T15:10:56.213Z,98808.14
2023-02-22T15:13:26.283Z,98812.83
2023-02-22T15:15:56.134Z,98806.41
2023-02-22T15:18:41.999Z,98810.53
2023-02-22T15:21:13.181Z,98811.22
2023-02-22T15:23:55.872Z,98814.97
2023-02-22T15:26:29.764Z,98817.80
2023-02-22T15:28:58.314Z,98820.58
2023-02-22T15:31:32.259Z,98826.73
2023-02-22T15:34:30.392Z,98828.65
2023-02-22T15:37:06.525Z,98829.67
2023-02-22T15:39:43.752Z,98833.94
2023-02-22T15:42:20.834Z,98836.98
2023-02-22T15:44:53.572Z,98843.89
2023-02-22T15:47:29.435Z,98844.36
2023-02-22T15:50:17.617Z,98844.42
2023-02-22T15:53:08.552Z,98848.58
2023-02-22T15:55:41.527Z,98854.73
2023-02-22T15:58:15.928Z,98859.18
2023-02-22T16:01:08.148Z,98857.92
2023-02-22T16:03:45.440Z,98862.11
2023-02-22T16:06:36.434Z,98865.21
2023-02-22T16:09:18.250Z,98872.90
2023-02-22T16:11:46.542Z,98879.64
2023-02-22T16:14:37.620Z,98881.04
2023-02-22T16:17:35.393Z,98885.67
2023-02-22T16:20:17.768Z,98889.73
2023-02-22T16:22:49.798Z,98890.02
2023-02-22T16:25:18.204Z,98897.50
2023-02-22T16:27:58.016Z,98903.31
2023-02-22T16:30:29.287Z,98902.73
2023-02-22T16:32:58.266Z,98902.09
2023-02-22T16:35:28.928Z,98904.21
2023-02-22T16:38:00.941Z,98911.92
2023-02-22T16:40:32.455Z,98915.35
2023-02-22T16:43:07.666Z,98918.83
2023-02-22T16:45:37.078Z,98923.48
2023-02-22T16:48:26.315Z,98924.42
2023-02-22T16:50:55.380Z,98930.52
2023-02-22T16:53:25.124Z,98935.16
2023-02-22T16:55:57.705Z,98934.10
2023-02-22T16:58:34.558Z,98938.06
2023-02-22T17:01:02.694Z,98941.36
2023-02-22T17:03:31.137Z,98941.21
2023-02-22T17:05:59.384Z,98939.19
2023-02-22T17:08:27.634Z,98939.83
2023-02-22T17:11:01.883Z,98940.42
2023-02-22T17:13:31.466Z,98944.48
2023-02-22T17:15:59.802Z,98945.59
2023-02-22T17:18:30.258Z,98945.16
2023-02-22T17:20:58.230Z,98944.52
2023-02-22T17:23:30.200Z,98944.42
2023-02-22T17:25:59.561Z,98948.00
2023-02-22T17:28:27.598Z,98949.27
2023-02-22T17:31:01.461Z,98956.52
2023-02-22T17:33:32.869Z,98959.52
2023-02-22T17:36:03.098Z,98965.83
2023-02-22T17:38:31.613Z,98971.63
2023-02-22T17:40:59.759Z,98975.21
2023-02-22T17:43:28.169Z,98977.84
2023-02-22T17:45:57.215Z,98975.29
2023-02-22T17:48:25.424Z,98972.88
2023-02-22T17:50:53.949Z,98971.11
2023-02-22T17:53:24.884Z,98973.14
2023-02-22T17:55:53.490Z,98973.71
2023-02-22T17:58:22.681Z,98976.23
2023-02-22T18:00:53.074Z,98982.05
2023-02-22T18:03:25.923Z,98983.59
2023-02-22T18:05:57.351Z,98984.50
2023-02-22T18:08:27.097Z,98990.27
2023-02-22T18:10:58.978Z,98988.21
2023-02-22T18:13:27.548Z,98990.29
2023-02-22T18:16:04.889Z,98994.45
2023-02-22T18:18:32.913Z,98999.15
2023-02-22T18:21:00.969Z,99001.34
2023-02-22T18:23:30.591Z,99001.06
2023-02-22T18:26:10.739Z,99003.75
2023-02-22T18:28:39.390Z,99008.77
2023-02-22T18:31:08.908Z,99005.45
2023-02-22T18:33:37.452Z,99008.34
2023-02-22T18:36:06.108Z,99005.94
2023-02-22T18:38:34.109Z,99008.30
2023-02-22T18:41:05.892Z,99011.72
2023-02-22T18:43:36.751Z,99015.17
2023-02-22T18:46:09.685Z,99015.02
2023-02-22T18:48:38.741Z,99017.14
2023-02-22T18:51:10.980Z,99022.84
2023-02-22T18:53:40.931Z,99021.16
2023-02-22T18:56:22.256Z,99019.72
2023-02-22T18:58:54.223Z,99024.89
2023-02-22T19:01:23.741Z,99032.63
2023-02-22T19:03:51.969Z,99031.28
2023-02-22T19:06:24.642Z,99035.29
2023-02-22T19:09:01.197Z,99037.02
2023-02-22T19:11:29.468Z,99038.08
2023-02-22T19:13:58.322Z,99040.05
2023-02-22T19:16:32.553Z,99044.57
2023-02-22T19:19:00.633Z,99044.35
2023-02-22T19:21:30.366Z,99052.23
2023-02-22T19:24:06.761Z,99054.69
2023-02-22T19:26:36.489Z,99055.10
2023-02-22T19:29:09.927Z,99058.15
2023-02-22T19:31:40.172Z,99059.31
2023-02-22T19:34:10.634Z,99058.23
2023-02-22T19:36:46.117Z,99060.53
2023-02-22T19:39:15.273Z,99058.33
2023-02-22T19:41:51.773Z,99063.01
2023-02-22T19:44:20.039Z,99063.20
2023-02-22T19:46:48.069Z,99064.77
2023-02-22T19:49:16.332Z,99064.09
2023-02-22T19:51:45.974Z,99065.63
2023-02-22T19:54:19.470Z,99060.44
2023-02-22T19:56:50.973Z,99060.48
2023-02-22T19:59:23.464Z,99066.88
2023-02-22T20:01:55.341Z,99069.25
2023-02-22T20:04:30.690Z,99071.73
2023-02-22T20:07:00.209Z,99075.17
2023-02-22T20:09:43.387Z,99081.77
2023-02-22T20:12:11.420Z,99085.33
2023-02-22T20:14:39.356Z,99090.02
2023-02-22T20:17:10.270Z,99088.71
2023-02-22T20:19:40.811Z,99090.72
2023-02-22T20:22:12.737Z,99091.30
2023-02-22T20:24:43.869Z,99096.41
2023-02-22T20:27:13.809Z,99102.36
2023-02-22T20:29:44.345Z,99104.48
2023-02-22T20:32:15.098Z,99107.69
2023-02-22T20:34:55.445Z,99119.24
2023-02-22T20:37:23.951Z,99119.76
2023-02-22T20:39:52.165Z,99126.52
2023-02-22T20:42:21.838Z,99127.19
2023-02-22T20:44:50.154Z,99129.05
2023-02-22T20:47:21.049Z,99132.55
2023-02-22T20:49:49.019Z,99134.50
2023-02-22T20:52:19.937Z,99135.59
2023-02-22T20:54:48.230Z,99135.91
2023-02-22T20:57:16.176Z,99138.80
2023-02-22T20:59:46.581Z,99135.83
2023-02-22T21:02:14.485Z,99138.05
2023-02-22T21:04:44.725Z,99138.63
2023-02-22T21:07:12.771Z,99139.77
2023-02-22T21:09:40.766Z,99143.82
2023-02-22T21:12:13.485Z,99146.27
2023-02-22T21:14:43.585Z,99149.19
2023-02-22T21:17:11.789Z,99152.95
2023-02-22T21:19:41.225Z,99162.64
2023-02-22T21:22:12.190Z,99166.73
2023-02-22T21:24:42.393Z,99166.02
2023-02-22T21:27:12.335Z,99167.88
2023-02-22T21:29:40.918Z,99170.49
2023-02-22T21:32:09.571Z,99170.95
2023-02-22T21:34:38.508Z,99172.14
2023-02-22T21:37:08.317Z,99175.17
2023-02-22T21:39:39.112Z,99173.66
2023-02-22T21:42:08.230Z,99178.55
2023-02-22T21:44:36.150Z,99179.44
2023-02-22T21:47:04.037Z,99179.27
2023-02-22T21:49:32.333Z,99185.53
2023-02-22T21:52:01.156Z,99186.86
2023-02-22T21:54:29.372Z,99195.49
2023-02-22T21:56:57.361Z,99197.29
2023-02-22T21:59:25.560Z,99203.63
2023-02-22T22:01:55.950Z,99212.14
2023-02-22T22:04:27.453Z,99213.94
2023-02-22T22:06:56.887Z,99208.90
2023-02-22T22:09:28.844Z,99215.87
2023-02-22T22:12:01.468Z,99213.42
2023-02-22T22:14:31.056Z,99217.63
2023-02-22T22:17:01.472Z,99216.66
2023-02-22T22:19:30.945Z,99214.66
2023-02-22T22:21:59.001Z,99216.71
2023-02-22T22:24:28.677Z,99220.16
2023-02-22T22:26:56.644Z,99219.20
2023-02-22T22:29:28.470Z,99228.21
2023-02-22T22:31:56.757Z,99228.23
2023-02-22T22:34:24.882Z,99234.86
2023-02-22T22:36:52.925Z,99234.98
2023-02-22T22:39:21.080Z,99237.39
2023-02-22T22:41:49.091Z,99236.61
2023-02-22T22:44:22.096Z,99237.48
2023-02-22T22:47:16.566Z,99240.94
2023-02-22T22:49:45.255Z,99244.11
2023-02-22T22:52:14.196Z,99242.05
2023-02-22T22:54:43.431Z,99243.38
2023-02-22T22:57:11.514Z,99245.08
2023-02-22T22:59:39.734Z,99252.58
2023-02-22T23:02:11.264Z,99252.65
2023-02-22T23:07:03.678Z,99258.98
2023-02-22T23:09:34.766Z,99263.50
2023-02-22T23:12:15.085Z,99266.13
2023-02-22T23:14:52.000Z,99270.56
2023-02-22T23:17:41.284Z,99271.23
2023-02-22T23:20:13.614Z,99273.92
2023-02-22T23:22:47.424Z,99274.00
2023-02-22T23:25:19.487Z,99278.98
2023-02-22T23:27:48.370Z,99282.52
2023-02-22T23:30:18.837Z,99283.86
2023-02-22T23:32:47.824Z,99277.80
2023-02-22T23:35:16.301Z,99283.31
2023-02-22T23:37:50.520Z,99286.32
2023-02-22T23:40:18.905Z,99286.55
2023-02-22T23:42:51.103Z,99287.77
2023-02-22T23:45:25.496Z,99295.95
2023-02-22T23:47:55.092Z,99296.95
2023-02-22T23:50:26.948Z,99298.48
2023-02-22T23:52:59.224Z,99302.58
2023-02-22T23:55:28.067Z,99307.02
2023-02-22T23:57:59.499Z,99308.77
